createdAt,value
2018-06-20T00:01:24.135Z,99.90
2018-06-20T00:03:52.277Z,99.90
2018-06-20T00:08:52.940Z,99.90
2018-06-20T00:11:23.861Z,99.90
2018-06-20T00:13:52.759Z,99.90
2018-06-20T00:18:49.116Z,99.90
2018-06-20T00:21:17.260Z,99.90
2018-06-20T00:23:45.424Z,99.90
2018-06-20T00:26:13.735Z,99.90
2018-06-20T00:31:10.191Z,99.90
2018-06-20T00:36:06.365Z,99.90
2018-06-20T00:38:34.500Z,99.90
2018-06-20T00:43:30.576Z,99.90
2018-06-20T00:45:58.741Z,99.90
2018-06-20T00:48:26.925Z,99.90
2018-06-20T00:50:55.098Z,99.90
2018-06-20T00:53:23.243Z,99.90
2018-06-20T00:56:02.784Z,99.90
2018-06-20T00:58:30.927Z,99.90
2018-06-20T01:00:59.085Z,99.90
2018-06-20T01:03:27.806Z,99.90
2018-06-20T01:05:55.957Z,99.90
2018-06-20T01:08:24.107Z,99.90
2018-06-20T01:10:52.260Z,99.90
2018-06-20T01:13:20.408Z,99.90
2018-06-20T01:15:48.560Z,99.90
2018-06-20T01:18:16.697Z,99.90
2018-06-20T01:20:44.844Z,99.90
2018-06-20T01:25:40.909Z,99.90
2018-06-20T01:28:09.085Z,99.90
2018-06-20T01:30:37.224Z,99.90
2018-06-20T01:33:05.381Z,99.90
2018-06-20T01:35:33.524Z,99.90
2018-06-20T01:38:01.675Z,99.90
2018-06-20T01:40:29.824Z,99.90
2018-06-20T01:42:57.976Z,99.90
2018-06-20T01:45:26.120Z,99.90
2018-06-20T01:47:54.273Z,99.90
2018-06-20T01:50:25.907Z,99.90
2018-06-20T01:55:22.164Z,99.90
2018-06-20T02:00:18.287Z,99.90
2018-06-20T02:02:46.441Z,99.90
2018-06-20T02:05:14.597Z,99.90
2018-06-20T02:07:42.755Z,99.90
2018-06-20T02:10:10.893Z,99.90
2018-06-20T02:12:39.046Z,99.90
2018-06-20T02:15:07.312Z,99.90
2018-06-20T02:17:35.465Z,99.90
2018-06-20T02:20:03.629Z,99.90
2018-06-20T02:22:31.778Z,99.90
2018-06-20T02:27:27.869Z,99.90
2018-06-20T02:29:56.012Z,99.90
2018-06-20T02:32:24.156Z,99.90
2018-06-20T02:34:52.378Z,99.90
2018-06-20T02:37:20.527Z,99.90
2018-06-20T02:39:48.893Z,99.90
2018-06-20T02:44:45.455Z,99.90
2018-06-20T02:49:42.205Z,99.90
2018-06-20T02:54:38.593Z,99.90
2018-06-20T02:57:06.788Z,99.90
2018-06-20T02:59:34.943Z,99.90
2018-06-20T03:02:03.088Z,99.90
2018-06-20T03:04:31.239Z,99.90
2018-06-20T03:06:59.408Z,99.90
2018-06-20T03:09:30.879Z,99.90
2018-06-20T03:11:59.680Z,99.90
2018-06-20T03:16:56.461Z,99.90
2018-06-20T03:19:25.742Z,99.90
2018-06-20T03:24:21.800Z,99.90
2018-06-20T03:26:50.053Z,99.90
2018-06-20T03:31:46.309Z,99.90
2018-06-20T03:34:14.464Z,99.90
2018-06-20T03:36:42.617Z,99.90
2018-06-20T03:39:11.129Z,99.90
2018-06-20T03:41:39.619Z,99.90
2018-06-20T03:46:35.972Z,99.90
2018-06-20T03:51:32.145Z,99.90
2018-06-20T03:54:00.501Z,99.90
2018-06-20T03:56:28.666Z,99.90
2018-06-20T04:01:25.580Z,99.90
2018-06-20T04:03:53.909Z,99.90
2018-06-20T04:08:49.969Z,99.90
2018-06-20T04:11:18.121Z,99.90
2018-06-20T04:16:14.896Z,99.90
2018-06-20T04:18:43.972Z,99.90
2018-06-20T04:21:13.480Z,99.90
2018-06-20T04:26:10.552Z,99.90
2018-06-20T04:31:07.621Z,99.90
2018-06-20T04:36:04.881Z,99.90
2018-06-20T04:38:33.041Z,99.90
2018-06-20T04:41:01.689Z,99.90
2018-06-20T04:43:29.858Z,99.90
2018-06-20T04:45:57.998Z,99.90
2018-06-20T04:50:54.548Z,99.90
2018-06-20T04:55:50.612Z,99.90
2018-06-20T04:58:18.774Z,99.90
2018-06-20T05:00:46.922Z,99.90
2018-06-20T05:03:15.224Z,99.90
2018-06-20T05:08:11.564Z,99.90
2018-06-20T05:10:39.948Z,99.90
2018-06-20T05:15:36.201Z,99.90
2018-06-20T05:20:32.465Z,99.90
2018-06-20T05:23:00.608Z,99.90
2018-06-20T05:25:28.766Z,99.90
2018-06-20T05:27:56.909Z,99.90
2018-06-20T05:30:25.052Z,99.50
2018-06-20T05:35:21.675Z,98.60
2018-06-20T05:37:49.825Z,97.20
2018-06-20T05:40:18.256Z,93.60
2018-06-20T05:45:14.344Z,78.80
2018-06-20T05:47:42.490Z,70.80
2018-06-20T05:50:10.641Z,63.70
2018-06-20T05:52:38.781Z,59.20
2018-06-20T05:55:07.300Z,56.20
2018-06-20T06:00:03.386Z,54.10
2018-06-20T06:02:31.728Z,54.30
2018-06-20T06:07:27.781Z,55.30
2018-06-20T06:09:55.916Z,56.40
2018-06-20T06:12:24.061Z,57.20
2018-06-20T06:14:52.216Z,59.40
2018-06-20T06:17:20.364Z,61.00
2018-06-20T06:22:16.664Z,66.20
2018-06-20T06:24:44.813Z,65.00
2018-06-20T06:27:12.964Z,67.30
2018-06-20T06:29:41.125Z,69.20
2018-06-20T06:32:10.093Z,68.60
2018-06-20T06:34:38.239Z,70.00
2018-06-20T06:37:06.389Z,70.30
2018-06-20T06:39:34.533Z,69.70
2018-06-20T06:42:02.687Z,70.10
2018-06-20T06:44:30.996Z,70.60
2018-06-20T06:46:59.149Z,71.80
2018-06-20T06:49:27.350Z,73.30
2018-06-20T06:51:55.461Z,73.20
2018-06-20T06:54:23.613Z,75.60
2018-06-20T06:56:51.757Z,75.20
2018-06-20T06:59:19.927Z,72.50
2018-06-20T07:01:48.084Z,74.60
2018-06-20T07:04:16.225Z,74.20
2018-06-20T07:06:44.385Z,73.70
2018-06-20T07:09:12.539Z,74.30
2018-06-20T07:11:40.688Z,72.90
2018-06-20T07:14:08.857Z,72.80
2018-06-20T07:16:36.995Z,74.30
2018-06-20T07:19:05.146Z,73.50
2018-06-20T07:24:01.224Z,71.60
2018-06-20T07:26:29.376Z,71.20
2018-06-20T07:28:57.524Z,70.00
2018-06-20T07:31:25.669Z,70.50
2018-06-20T07:33:54.133Z,70.40
2018-06-20T07:36:22.363Z,73.00
2018-06-20T07:38:50.428Z,70.80
2018-06-20T07:41:18.576Z,70.50
2018-06-20T07:43:47.398Z,69.80
2018-06-20T07:48:43.481Z,70.10
2018-06-20T07:51:11.637Z,70.90
2018-06-20T07:53:39.787Z,69.70
2018-06-20T07:56:07.924Z,69.20
2018-06-20T07:58:41.630Z,67.60
2018-06-20T08:01:15.979Z,69.30
2018-06-20T08:06:23.159Z,68.00
2018-06-20T08:08:57.531Z,66.80
2018-06-20T08:11:31.245Z,64.80
2018-06-20T08:14:04.676Z,64.40
2018-06-20T08:16:38.233Z,64.00
2018-06-20T08:19:12.457Z,63.70
2018-06-20T08:21:40.625Z,62.70
2018-06-20T08:24:08.794Z,64.50
2018-06-20T08:26:36.996Z,62.40
2018-06-20T08:29:05.140Z,61.10
2018-06-20T08:34:01.201Z,58.20
2018-06-20T08:36:29.348Z,59.40
2018-06-20T08:41:25.420Z,60.50
2018-06-20T08:43:53.560Z,60.10
2018-06-20T08:48:49.682Z,60.60
2018-06-20T08:51:17.821Z,59.00
2018-06-20T08:53:45.967Z,58.10
2018-06-20T08:58:42.348Z,55.40
2018-06-20T09:01:10.485Z,56.60
2018-06-20T09:06:11.873Z,54.90
2018-06-20T09:08:45.628Z,56.20
2018-06-20T09:11:19.056Z,55.70
2018-06-20T09:16:26.816Z,54.80
2018-06-20T09:19:59.361Z,51.30
2018-06-20T09:22:27.512Z,53.10
2018-06-20T09:24:55.655Z,53.20
2018-06-20T09:27:23.810Z,49.90
2018-06-20T09:29:51.968Z,53.00
2018-06-20T09:32:20.125Z,52.60
2018-06-20T09:37:16.211Z,53.90
2018-06-20T09:39:44.535Z,50.70
2018-06-20T09:42:12.637Z,49.80
2018-06-20T09:47:09.112Z,52.10
2018-06-20T09:49:37.576Z,48.10
2018-06-20T09:52:05.712Z,49.20
2018-06-20T09:54:33.877Z,50.10
2018-06-20T09:57:02.024Z,50.30
2018-06-20T09:59:35.617Z,49.20
2018-06-20T10:02:09.068Z,48.70
2018-06-20T10:04:42.925Z,49.50
2018-06-20T10:07:18.953Z,47.20
2018-06-20T10:12:29.592Z,48.90
2018-06-20T10:14:57.745Z,49.30
2018-06-20T10:17:26.817Z,49.40
2018-06-20T10:19:54.974Z,49.60
2018-06-20T10:22:23.114Z,50.30
2018-06-20T10:24:51.252Z,49.90
2018-06-20T10:27:19.419Z,48.90
2018-06-20T10:29:47.565Z,49.80
2018-06-20T10:32:15.705Z,50.30
2018-06-20T10:34:44.873Z,47.70
2018-06-20T10:37:13.029Z,48.00
2018-06-20T10:42:09.201Z,49.10
2018-06-20T10:44:37.343Z,48.50
2018-06-20T10:49:39.664Z,48.70
2018-06-20T10:52:07.812Z,49.50
2018-06-20T10:57:09.673Z,49.10
2018-06-20T10:59:43.101Z,48.60
2018-06-20T11:02:16.655Z,48.10
2018-06-20T11:04:50.192Z,49.30
2018-06-20T11:08:28.043Z,48.00
2018-06-20T11:11:01.708Z,48.20
2018-06-20T11:13:29.864Z,48.70
2018-06-20T11:15:58.005Z,48.70
2018-06-20T11:18:26.152Z,48.50
2018-06-20T11:20:56.448Z,48.30
2018-06-20T11:23:24.820Z,47.70
2018-06-20T11:28:21.518Z,49.60
2018-06-20T11:30:49.685Z,48.90
2018-06-20T11:33:17.845Z,48.70
2018-06-20T11:38:13.916Z,47.90
2018-06-20T11:40:42.062Z,48.60
2018-06-20T11:43:10.213Z,46.60
2018-06-20T11:45:43.808Z,49.20
2018-06-20T11:48:11.957Z,49.90
2018-06-20T11:50:40.133Z,48.20
2018-06-20T11:53:09.580Z,47.30
2018-06-20T11:55:39.912Z,49.00
2018-06-20T12:00:49.660Z,48.50
2018-06-20T12:03:23.273Z,47.10
2018-06-20T12:08:30.368Z,48.90
2018-06-20T12:13:37.466Z,49.30
2018-06-20T12:16:45.056Z,48.80
2018-06-20T12:19:18.547Z,48.20
2018-06-20T12:21:52.108Z,47.60
2018-06-20T12:24:25.836Z,48.60
2018-06-20T12:26:59.384Z,47.90
2018-06-20T12:29:32.949Z,46.70
2018-06-20T12:32:06.624Z,46.50
2018-06-20T12:34:40.285Z,47.20
2018-06-20T12:37:14.008Z,48.40
2018-06-20T12:39:41.432Z,47.80
2018-06-20T12:42:15.190Z,46.70
2018-06-20T12:44:48.536Z,45.70
2018-06-20T12:47:22.672Z,46.60
2018-06-20T12:49:55.033Z,49.10
2018-06-20T12:57:20.025Z,48.30
2018-06-20T12:59:48.285Z,46.70
2018-06-20T13:02:16.436Z,45.90
2018-06-20T13:04:44.592Z,46.50
2018-06-20T13:07:12.984Z,47.60
2018-06-20T13:12:09.097Z,45.80
2018-06-20T13:14:37.257Z,46.70
2018-06-20T13:17:05.589Z,47.20
2018-06-20T13:19:33.733Z,46.40
2018-06-20T13:22:01.885Z,46.50
2018-06-20T13:24:30.029Z,46.40
2018-06-20T13:26:58.188Z,46.10
2018-06-20T13:29:26.328Z,46.30
2018-06-20T13:31:59.776Z,46.80
2018-06-20T13:34:33.503Z,48.20
2018-06-20T13:37:07.231Z,47.30
2018-06-20T13:39:41.055Z,47.70
2018-06-20T13:42:13.402Z,47.40
2018-06-20T13:44:42.369Z,48.30
2018-06-20T13:47:15.971Z,48.30
2018-06-20T13:49:44.196Z,47.60
2018-06-20T13:52:12.402Z,48.00
2018-06-20T13:54:41.253Z,47.60
2018-06-20T13:57:09.427Z,48.70
2018-06-20T13:59:37.568Z,48.00
2018-06-20T14:02:05.733Z,48.60
2018-06-20T14:04:33.884Z,48.20
2018-06-20T14:07:02.077Z,49.70
2018-06-20T14:09:30.332Z,49.70
2018-06-20T14:14:26.408Z,47.50
2018-06-20T14:16:54.577Z,48.80
2018-06-20T14:20:25.979Z,47.70
2018-06-20T14:22:54.213Z,49.20
2018-06-20T14:25:22.344Z,47.70
2018-06-20T14:27:50.496Z,50.30
2018-06-20T14:30:24.220Z,49.00
2018-06-20T14:32:57.974Z,48.60
2018-06-20T14:35:31.669Z,48.70
2018-06-20T14:38:05.360Z,48.50
2018-06-20T14:40:38.826Z,48.90
2018-06-20T14:43:13.204Z,49.10
2018-06-20T14:45:46.920Z,49.60
2018-06-20T14:48:15.073Z,49.90
2018-06-20T14:50:43.219Z,49.60
2018-06-20T14:53:12.478Z,49.10
2018-06-20T14:55:40.915Z,49.90
2018-06-20T14:58:09.065Z,49.00
2018-06-20T15:03:19.574Z,49.80
2018-06-20T15:05:47.720Z,48.70
2018-06-20T15:08:15.877Z,49.70
2018-06-20T15:10:45.878Z,49.30
2018-06-20T15:13:14.982Z,49.80
2018-06-20T15:15:43.929Z,50.60
2018-06-20T15:18:12.274Z,51.30
2018-06-20T15:20:40.534Z,50.40
2018-06-20T15:23:08.720Z,49.70
2018-06-20T15:25:36.869Z,50.20
2018-06-20T15:28:10.412Z,50.20
2018-06-20T15:30:44.073Z,49.40
2018-06-20T15:33:18.457Z,50.50
2018-06-20T15:35:52.201Z,50.30
2018-06-20T15:41:25.035Z,49.20
2018-06-20T15:43:53.184Z,51.30
2018-06-20T15:46:21.353Z,51.10
2018-06-20T15:49:01.029Z,50.90
2018-06-20T15:51:30.577Z,51.80
2018-06-20T15:53:58.820Z,50.60
2018-06-20T15:56:27.033Z,51.10
2018-06-20T15:58:55.240Z,49.80
2018-06-20T16:01:24.644Z,49.90
2018-06-20T16:03:52.924Z,50.80
2018-06-20T16:06:21.084Z,51.50
2018-06-20T16:08:54.785Z,50.50
2018-06-20T16:11:23.004Z,50.40
2018-06-20T16:13:51.201Z,50.20
2018-06-20T16:16:19.940Z,49.70
2018-06-20T16:18:53.709Z,50.60
2018-06-20T16:21:27.385Z,50.10
2018-06-20T16:24:00.996Z,49.60
2018-06-20T16:26:34.748Z,49.50
2018-06-20T16:30:10.925Z,49.70
2018-06-20T16:32:39.093Z,49.40
2018-06-20T16:35:07.255Z,47.70
2018-06-20T16:37:35.471Z,48.10
2018-06-20T16:40:04.463Z,48.10
2018-06-20T16:42:32.659Z,47.60
2018-06-20T16:45:00.864Z,47.10
2018-06-20T16:47:29.041Z,46.80
2018-06-20T16:49:57.263Z,47.50
2018-06-20T16:52:25.424Z,48.30
2018-06-20T16:54:53.593Z,48.70
2018-06-20T16:57:21.786Z,50.00
2018-06-20T16:59:50.133Z,50.50
2018-06-20T17:02:23.841Z,50.40
2018-06-20T17:04:51.988Z,50.50
2018-06-20T17:07:20.164Z,51.80
2018-06-20T17:09:48.984Z,52.30
2018-06-20T17:12:22.672Z,53.20
2018-06-20T17:14:56.391Z,53.10
2018-06-20T17:17:30.025Z,52.80
2018-06-20T17:20:03.572Z,53.00
2018-06-20T17:22:37.217Z,53.40
2018-06-20T17:25:10.879Z,53.60
2018-06-20T17:27:39.049Z,53.60
2018-06-20T17:30:07.850Z,54.20
2018-06-20T17:32:36.041Z,55.10
2018-06-20T17:35:04.400Z,54.90
2018-06-20T17:37:32.897Z,55.00
2018-06-20T17:40:01.072Z,55.50
2018-06-20T17:42:29.998Z,56.00
2018-06-20T17:44:58.164Z,56.30
2018-06-20T17:47:26.338Z,56.50
2018-06-20T17:49:54.570Z,56.10
2018-06-20T17:52:22.737Z,56.60
2018-06-20T17:54:50.926Z,56.60
2018-06-20T17:57:19.104Z,56.70
2018-06-20T17:59:47.253Z,57.10
2018-06-20T18:02:15.441Z,57.10
2018-06-20T18:04:49.151Z,57.30
2018-06-20T18:07:22.847Z,57.60
2018-06-20T18:09:56.476Z,58.10
2018-06-20T18:12:30.317Z,57.90
2018-06-20T18:15:04.144Z,58.40
2018-06-20T18:17:32.293Z,58.50
2018-06-20T18:20:00.492Z,58.80
2018-06-20T18:22:29.521Z,58.90
2018-06-20T18:24:57.673Z,58.90
2018-06-20T18:27:25.895Z,59.00
2018-06-20T18:29:54.084Z,59.20
2018-06-20T18:32:22.264Z,59.40
2018-06-20T18:34:50.560Z,59.60
2018-06-20T18:37:18.725Z,59.80
2018-06-20T18:39:52.341Z,60.20
2018-06-20T18:42:20.504Z,60.70
2018-06-20T18:44:48.660Z,61.10
2018-06-20T18:47:22.397Z,61.60
2018-06-20T18:49:50.551Z,61.90
2018-06-20T18:52:18.756Z,62.10
2018-06-20T18:54:46.947Z,62.50
2018-06-20T18:59:53.995Z,63.40
2018-06-20T19:02:27.658Z,63.90
2018-06-20T19:05:01.340Z,64.20
2018-06-20T19:07:34.997Z,64.60
2018-06-20T19:10:03.175Z,65.10
2018-06-20T19:12:31.869Z,66.30
2018-06-20T19:15:00.073Z,65.70
2018-06-20T19:17:28.273Z,66.00
2018-06-20T19:19:56.523Z,66.30
2018-06-20T19:22:24.659Z,66.60
2018-06-20T19:24:52.804Z,67.00
2018-06-20T19:27:20.989Z,67.40
2018-06-20T19:29:49.158Z,68.00
2018-06-20T19:32:17.386Z,68.70
2018-06-20T19:34:45.488Z,69.90
2018-06-20T19:37:13.716Z,70.10
2018-06-20T19:39:47.203Z,70.70
2018-06-20T19:42:15.377Z,72.00
2018-06-20T19:44:43.627Z,73.40
2018-06-20T19:47:11.769Z,74.90
2018-06-20T19:49:40.172Z,74.80
2018-06-20T19:52:08.339Z,75.50
2018-06-20T19:54:36.500Z,76.00
2018-06-20T19:57:04.707Z,76.60
2018-06-20T19:59:32.868Z,78.20
2018-06-20T20:02:01.042Z,79.10
2018-06-20T20:04:29.205Z,79.60
2018-06-20T20:06:57.409Z,79.70
2018-06-20T20:09:25.605Z,79.40
2018-06-20T20:14:21.873Z,80.10
2018-06-20T20:16:50.057Z,81.10
2018-06-20T20:19:18.221Z,81.70
2018-06-20T20:21:46.638Z,82.30
2018-06-20T20:24:14.792Z,83.50
2018-06-20T20:26:43.125Z,84.80
2018-06-20T20:29:11.704Z,86.50
2018-06-20T20:31:39.852Z,87.80
2018-06-20T20:34:08.081Z,88.90
2018-06-20T20:36:36.213Z,89.40
2018-06-20T20:39:07.050Z,90.10
2018-06-20T20:41:35.271Z,91.00
2018-06-20T20:44:03.430Z,91.80
2018-06-20T20:46:31.620Z,92.60
2018-06-20T20:51:27.691Z,93.50
2018-06-20T20:53:55.829Z,93.80
2018-06-20T20:56:24.004Z,93.90
2018-06-20T20:58:52.164Z,94.20
2018-06-20T21:01:20.328Z,94.30
2018-06-20T21:03:48.473Z,94.30
2018-06-20T21:06:16.645Z,94.80
2018-06-20T21:08:44.805Z,94.70
2018-06-20T21:11:15.195Z,94.80
2018-06-20T21:16:11.983Z,94.40
2018-06-20T21:18:40.148Z,94.60
2018-06-20T21:21:08.300Z,94.90
2018-06-20T21:23:36.581Z,95.70
2018-06-20T21:26:04.792Z,96.30
2018-06-20T21:28:32.976Z,96.70
2018-06-20T21:31:01.308Z,97.10
2018-06-20T21:33:29.476Z,97.00
2018-06-20T21:35:57.672Z,96.80
2018-06-20T21:38:25.809Z,96.70
2018-06-20T21:40:53.948Z,96.80
2018-06-20T21:43:22.117Z,97.20
2018-06-20T21:45:50.260Z,97.30
2018-06-20T21:48:18.412Z,97.50
2018-06-20T21:50:46.579Z,97.90
2018-06-20T21:53:14.737Z,98.30
2018-06-20T21:55:42.876Z,98.30
2018-06-20T21:58:11.048Z,98.50
2018-06-20T22:00:39.212Z,98.90
2018-06-20T22:03:07.401Z,98.90
2018-06-20T22:05:35.528Z,99.30
2018-06-20T22:08:03.683Z,99.30
2018-06-20T22:10:31.893Z,99.90
2018-06-20T22:15:27.972Z,99.90
2018-06-20T22:17:56.148Z,99.90
2018-06-20T22:20:24.316Z,99.90
2018-06-20T22:22:52.460Z,99.90
2018-06-20T22:25:20.628Z,99.90
2018-06-20T22:27:48.772Z,99.90
2018-06-20T22:30:16.920Z,99.90
2018-06-20T22:32:45.068Z,99.90
2018-06-20T22:35:13.238Z,99.90
2018-06-20T22:37:41.392Z,99.90
2018-06-20T22:40:09.680Z,99.90
2018-06-20T22:42:38.189Z,99.90
2018-06-20T22:45:06.332Z,99.90
2018-06-20T22:47:34.515Z,99.90
2018-06-20T22:52:30.597Z,99.90
2018-06-20T22:54:58.868Z,99.90
2018-06-20T22:57:27.028Z,99.90
2018-06-20T22:59:55.236Z,99.90
2018-06-20T23:02:23.489Z,99.90
2018-06-20T23:04:51.663Z,99.90
2018-06-20T23:07:19.797Z,99.90
